Time;durP1;ratioP1;P1;durP2;ratioP2;P2;SDS_P1;SDS_P2;PMS_P1;PMS_P2;Temp;Humidity;BMP_temperature;BMP_pressure;BME280_temperature;BME280_humidity;BME280_pressure;Samples;Min_cycle;Max_cycle;Signal;HPM_P1;HPM_P2
2023/01/11 00:01:34;;;;;;;6.50;3.97;;;;;;;;;;4937295;29;20079;-68
2023/01/11 00:04:00;;;;;;;8.30;3.88;;;;;;;;;;4937570;29;20028;-69
2023/01/11 00:06:26;;;;;;;6.43;3.88;;;;;;;;;;4937391;29;20104;-69
2023/01/11 00:08:55;;;;;;;7.53;4.20;;;;;;;;;;4937428;29;20030;-71
2023/01/11 00:11:21;;;;;;;7.72;4.32;;;;;;;;;;4937446;29;20461;-69
2023/01/11 00:13:47;;;;;;;7.80;3.13;;;;;;;;;;4937355;29;20035;-71
2023/01/11 00:16:13;;;;;;;6.07;3.67;;;;;;;;;;4937289;29;20042;-71
2023/01/11 00:18:39;;;;;;;5.28;3.90;;;;;;;;;;4937219;29;20031;-78
2023/01/11 00:21:06;;;;;;;4.93;3.67;;;;;;;;;;4937233;29;20186;-70
2023/01/11 00:23:36;;;;;;;6.18;3.92;;;;;;;;;;4937009;29;20107;-70
2023/01/11 00:26:03;;;;;;;6.35;3.92;;;;;;;;;;4937020;29;20056;-69
2023/01/11 00:28:29;;;;;;;6.30;3.85;;;;;;;;;;4937010;29;20519;-71
2023/01/11 00:30:55;;;;;;;6.50;3.95;;;;;;;;;;4937145;29;20083;-73
2023/01/11 00:33:21;;;;;;;6.35;3.80;;;;;;;;;;4937190;29;20031;-71
2023/01/11 00:35:47;;;;;;;7.40;4.10;;;;;;;;;;4936513;29;20026;-71
2023/01/11 00:38:42;;;;;;;8.88;4.45;;;;;;;;;;4936600;29;20484;-72
2023/01/11 00:47:55;;;;;;;7.22;4.22;;;;;;;;;;4936559;29;20027;-72
2023/01/11 00:49:14;;;;;;;6.53;4.20;;;;;;;;;;4936559;29;20066;-71
2023/01/11 00:51:40;;;;;;;7.57;4.65;;;;;;;;;;4936653;29;20028;-71
2023/01/11 00:54:06;;;;;;;6.50;4.20;;;;;;;;;;4936477;29;20396;-72
2023/01/11 00:56:32;;;;;;;6.60;4.57;;;;;;;;;;4936468;29;20473;-72
2023/01/11 00:58:58;;;;;;;6.70;4.47;;;;;;;;;;4936281;29;20055;-72
2023/01/11 01:01:24;;;;;;;6.55;4.30;;;;;;;;;;4936077;29;20056;-71
2023/01/11 01:03:50;;;;;;;7.78;4.90;;;;;;;;;;4936546;29;20136;-71
2023/01/11 01:06:16;;;;;;;8.80;5.40;;;;;;;;;;4936333;29;20059;-71
2023/01/11 01:08:42;;;;;;;7.50;4.82;;;;;;;;;;4936325;29;20082;-72
2023/01/11 01:11:08;;;;;;;4.60;3.15;;;;;;;;;;4936493;29;20388;-71
2023/01/11 01:16:19;;;;;;;9.95;4.95;;;;;;;;;;4936310;29;20453;-71
2023/01/11 01:18:45;;;;;;;9.05;5.45;;;;;;;;;;4936399;29;20023;-71
2023/01/11 01:21:11;;;;;;;6.18;3.90;;;;;;;;;;4936257;29;20028;-71
2023/01/11 01:23:37;;;;;;;6.32;4.60;;;;;;;;;;4935755;29;20443;-70
2023/01/11 01:26:03;;;;;;;7.05;3.70;;;;;;;;;;4935922;29;20071;-71
2023/01/11 01:28:30;;;;;;;7.72;4.43;;;;;;;;;;4935919;29;20032;-71
2023/01/11 01:30:56;;;;;;;7.25;4.90;;;;;;;;;;4935647;29;20111;-71
2023/01/11 01:33:22;;;;;;;6.05;3.67;;;;;;;;;;4935846;29;20032;-75
2023/01/11 01:35:48;;;;;;;5.90;3.47;;;;;;;;;;4935809;29;20469;-70
2023/01/11 01:38:14;;;;;;;6.85;4.45;;;;;;;;;;4935768;29;20103;-70
2023/01/11 01:40:41;;;;;;;7.25;4.70;;;;;;;;;;4935698;29;20042;-71
2023/01/11 01:43:11;;;;;;;8.85;5.35;;;;;;;;;;4935805;29;20032;-72
2023/01/11 01:45:37;;;;;;;6.43;4.45;;;;;;;;;;4935695;29;20531;-71
2023/01/11 01:48:07;;;;;;;8.23;5.10;;;;;;;;;;4935612;29;20496;-71
2023/01/11 01:50:37;;;;;;;4.55;2.78;;;;;;;;;;4935512;29;20035;-70
2023/01/11 01:53:05;;;;;;;7.57;5.03;;;;;;;;;;4935599;29;20142;-71
2023/01/11 01:55:34;;;;;;;5.70;3.05;;;;;;;;;;4935357;29;20028;-69
2023/01/11 01:58:01;;;;;;;6.63;4.72;;;;;;;;;;4935189;29;20028;-70
2023/01/11 02:00:27;;;;;;;8.95;5.20;;;;;;;;;;4934913;29;20046;-70
2023/01/11 02:02:54;;;;;;;7.90;5.60;;;;;;;;;;4935338;29;20785;-75
2023/01/11 02:05:20;;;;;;;6.97;4.72;;;;;;;;;;4935240;29;20395;-70
2023/01/11 02:07:46;;;;;;;6.70;4.85;;;;;;;;;;4934950;29;20670;-68
2023/01/11 02:10:17;;;;;;;8.40;5.10;;;;;;;;;;4935251;29;20035;-69
2023/01/11 02:12:56;;;;;;;6.15;3.80;;;;;;;;;;4935144;29;20437;-69
2023/01/11 02:15:23;;;;;;;5.50;4.10;;;;;;;;;;4935049;29;20083;-69
2023/01/11 02:17:49;;;;;;;6.50;4.70;;;;;;;;;;4934837;29;20472;-69
2023/01/11 02:20:24;;;;;;;8.48;4.72;;;;;;;;;;4935125;29;20098;-74
2023/01/11 02:23:08;;;;;;;7.38;4.55;;;;;;;;;;4934824;29;20154;-72
2023/01/11 02:25:44;;;;;;;6.38;4.70;;;;;;;;;;4934888;29;20051;-69
2023/01/11 02:28:13;;;;;;;7.65;4.90;;;;;;;;;;4934882;29;20369;-70
2023/01/11 02:30:39;;;;;;;5.47;3.17;;;;;;;;;;4934697;29;20040;-70
2023/01/11 02:33:22;;;;;;;7.22;4.90;;;;;;;;;;4934775;29;20031;-70
2023/01/11 02:36:07;;;;;;;9.82;5.72;;;;;;;;;;4934661;29;20094;-70
2023/01/11 02:38:42;;;;;;;8.07;5.50;;;;;;;;;;4934595;29;20066;-70
2023/01/11 02:41:17;;;;;;;6.57;4.00;;;;;;;;;;4934741;29;20034;-70
2023/01/11 02:46:40;;;;;;;8.93;5.18;;;;;;;;;;4934346;29;20046;-70
2023/01/11 02:49:24;;;;;;;8.85;4.78;;;;;;;;;;4934353;29;20119;-74
2023/01/11 02:51:54;;;;;;;8.43;5.00;;;;;;;;;;4934392;29;20138;-74
2023/01/11 02:54:22;;;;;;;8.18;4.70;;;;;;;;;;4934227;29;20035;-70
2023/01/11 02:56:49;;;;;;;8.73;5.32;;;;;;;;;;4934383;29;20024;-70
2023/01/11 02:59:17;;;;;;;7.93;4.65;;;;;;;;;;4934028;29;20039;-70
2023/01/11 03:01:46;;;;;;;7.30;4.57;;;;;;;;;;4935151;29;20063;-70
2023/01/11 03:04:45;;;;;;;6.97;3.85;;;;;;;;;;4935764;29;20036;-71
2023/01/11 03:07:29;;;;;;;6.05;3.60;;;;;;;;;;4838323;29;20125;-70
2023/01/11 03:10:13;;;;;;;7.93;4.55;;;;;;;;;;4838095;29;20050;-71
2023/01/11 03:12:51;;;;;;;7.57;4.72;;;;;;;;;;4838625;29;20515;-71
2023/01/11 03:15:26;;;;;;;6.53;4.95;;;;;;;;;;4838663;29;20034;-71
2023/01/11 03:18:07;;;;;;;7.43;4.55;;;;;;;;;;4838425;29;20435;-71
2023/01/11 03:20:41;;;;;;;8.25;4.68;;;;;;;;;;4838446;29;20049;-71
2023/01/11 03:23:26;;;;;;;7.88;4.25;;;;;;;;;;4838160;29;20042;-71
2023/01/11 03:25:55;;;;;;;8.07;4.85;;;;;;;;;;4838391;29;20029;-71
2023/01/11 03:28:47;;;;;;;5.55;3.38;;;;;;;;;;4838162;29;20049;-71
2023/01/11 03:31:26;;;;;;;7.63;4.07;;;;;;;;;;4829139;29;20081;-72
2023/01/11 03:34:18;;;;;;;5.85;3.13;;;;;;;;;;4837890;29;20520;-71
2023/01/11 03:37:10;;;;;;;6.57;3.92;;;;;;;;;;4835476;29;20046;-71
2023/01/11 03:39:42;;;;;;;5.75;4.15;;;;;;;;;;4835804;29;20495;-71
2023/01/11 03:42:09;;;;;;;6.82;4.25;;;;;;;;;;4859867;29;20035;-72
2023/01/11 03:44:38;;;;;;;7.43;4.65;;;;;;;;;;4933893;29;20046;-71
2023/01/11 03:47:06;;;;;;;8.35;4.60;;;;;;;;;;4933588;29;20503;-71
2023/01/11 03:49:51;;;;;;;6.80;4.47;;;;;;;;;;4933937;29;20568;-72
2023/01/11 03:52:19;;;;;;;7.72;4.22;;;;;;;;;;4933809;29;20103;-71
2023/01/11 03:54:46;;;;;;;6.90;3.97;;;;;;;;;;4933630;29;20028;-72
2023/01/11 03:57:15;;;;;;;6.47;3.90;;;;;;;;;;4933878;29;20016;-71
2023/01/11 03:59:41;;;;;;;7.28;3.70;;;;;;;;;;4933724;29;20036;-73
2023/01/11 04:02:27;;;;;;;5.20;3.30;;;;;;;;;;4933510;29;20530;-71
2023/01/11 04:04:53;;;;;;;5.85;3.83;;;;;;;;;;4934002;29;20115;-72
2023/01/11 04:07:19;;;;;;;5.57;3.60;;;;;;;;;;4933689;29;20036;-72
2023/01/11 04:09:45;;;;;;;5.60;3.38;;;;;;;;;;4933815;29;20488;-71
2023/01/11 04:12:11;;;;;;;6.05;2.78;;;;;;;;;;4933801;29;20031;-72
2023/01/11 04:14:38;;;;;;;6.38;3.35;;;;;;;;;;4933602;29;20028;-71
2023/01/11 04:17:04;;;;;;;6.10;3.78;;;;;;;;;;4933644;29;20027;-71
2023/01/11 04:19:30;;;;;;;5.47;3.40;;;;;;;;;;4933462;29;20052;-71
2023/01/11 04:21:56;;;;;;;6.85;3.50;;;;;;;;;;4936252;29;20035;-71
2023/01/11 04:24:22;;;;;;;5.43;3.78;;;;;;;;;;4937080;29;20028;-72
2023/01/11 04:26:49;;;;;;;5.97;3.47;;;;;;;;;;4937087;29;20027;-71
2023/01/11 04:29:15;;;;;;;5.50;3.00;;;;;;;;;;4936861;29;20034;-72
2023/01/11 04:31:41;;;;;;;6.22;3.78;;;;;;;;;;4936965;29;20028;-72
2023/01/11 04:34:07;;;;;;;6.47;3.50;;;;;;;;;;4936679;29;20030;-72
2023/01/11 04:36:33;;;;;;;8.35;4.30;;;;;;;;;;4917857;29;20039;-72
2023/01/11 04:38:59;;;;;;;6.28;3.83;;;;;;;;;;4917818;29;20477;-72
2023/01/11 04:44:10;;;;;;;6.63;4.20;;;;;;;;;;4918099;29;20393;-72
2023/01/11 04:46:36;;;;;;;8.18;4.57;;;;;;;;;;4917563;29;20461;-71
2023/01/11 04:49:02;;;;;;;6.90;4.22;;;;;;;;;;4917550;29;20084;-71
2023/01/11 04:51:28;;;;;;;8.00;4.60;;;;;;;;;;4917686;29;20052;-72
2023/01/11 04:53:54;;;;;;;8.68;5.03;;;;;;;;;;4917521;29;20035;-71
2023/01/11 04:56:20;;;;;;;6.45;4.75;;;;;;;;;;4917545;29;20384;-71
2023/01/11 04:58:46;;;;;;;9.70;6.30;;;;;;;;;;4917171;29;20032;-71
2023/01/11 05:01:16;;;;;;;10.55;5.85;;;;;;;;;;4917016;29;20048;-71
2023/01/11 05:03:42;;;;;;;7.43;5.13;;;;;;;;;;4917408;29;20024;-72
2023/01/11 05:06:09;;;;;;;8.52;5.88;;;;;;;;;;4917669;29;20046;-71
2023/01/11 05:08:35;;;;;;;9.40;5.90;;;;;;;;;;4917020;29;20036;-72
2023/01/11 05:11:05;;;;;;;8.98;6.00;;;;;;;;;;4917431;29;20111;-72
2023/01/11 05:13:41;;;;;;;10.13;6.55;;;;;;;;;;4917078;29;20488;-71
2023/01/11 05:16:10;;;;;;;9.45;6.63;;;;;;;;;;4917311;29;20500;-72
2023/01/11 05:18:39;;;;;;;9.38;5.50;;;;;;;;;;4917111;29;20044;-72
2023/01/11 05:21:05;;;;;;;8.23;5.05;;;;;;;;;;4917359;29;20099;-71
2023/01/11 05:23:31;;;;;;;9.48;5.53;;;;;;;;;;4917013;29;20028;-72
2023/01/11 05:25:57;;;;;;;7.70;5.63;;;;;;;;;;4917160;29;20500;-72
2023/01/11 05:28:23;;;;;;;7.90;5.30;;;;;;;;;;4916922;29;20051;-72
2023/01/11 05:30:52;;;;;;;8.52;5.65;;;;;;;;;;4917011;29;20047;-71
2023/01/11 05:33:18;;;;;;;9.77;5.97;;;;;;;;;;4916554;29;20107;-72
2023/01/11 05:35:44;;;;;;;12.68;6.53;;;;;;;;;;4916904;29;20148;-72
2023/01/11 05:38:10;;;;;;;8.82;5.70;;;;;;;;;;4916762;29;20032;-72
2023/01/11 05:40:36;;;;;;;10.10;5.85;;;;;;;;;;4916929;29;20026;-73
2023/01/11 05:43:03;;;;;;;9.90;6.75;;;;;;;;;;4916821;29;20020;-72
2023/01/11 05:45:31;;;;;;;13.85;8.23;;;;;;;;;;4916761;29;20020;-72
2023/01/11 05:47:57;;;;;;;15.85;10.68;;;;;;;;;;4916653;29;20051;-72
2023/01/11 05:50:23;;;;;;;15.02;8.63;;;;;;;;;;4916952;29;20194;-72
2023/01/11 05:52:49;;;;;;;11.10;6.30;;;;;;;;;;4916794;29;20043;-72
2023/01/11 05:55:15;;;;;;;11.77;7.28;;;;;;;;;;4916445;29;20432;-72
2023/01/11 05:57:45;;;;;;;12.18;7.38;;;;;;;;;;4916696;29;20400;-72
2023/01/11 06:00:12;;;;;;;13.05;7.70;;;;;;;;;;4916037;29;20099;-73
2023/01/11 06:02:38;;;;;;;11.55;6.63;;;;;;;;;;4933281;29;20082;-73
2023/01/11 06:05:04;;;;;;;10.07;6.47;;;;;;;;;;4935381;29;20031;-73
2023/01/11 06:07:30;;;;;;;9.85;6.55;;;;;;;;;;4935063;29;20391;-73
2023/01/11 06:09:56;;;;;;;9.13;6.80;;;;;;;;;;4935343;29;20399;-72
2023/01/11 06:12:22;;;;;;;9.82;6.32;;;;;;;;;;4935194;29;20035;-74
2023/01/11 06:14:48;;;;;;;14.02;7.88;;;;;;;;;;4935164;29;20023;-71
2023/01/11 06:17:14;;;;;;;14.30;8.75;;;;;;;;;;4934994;29;20124;-74
2023/01/11 06:19:40;;;;;;;11.25;7.15;;;;;;;;;;4934815;29;20027;-73
2023/01/11 06:22:06;;;;;;;13.10;8.02;;;;;;;;;;4935023;29;20030;-73
2023/01/11 06:24:32;;;;;;;10.57;7.13;;;;;;;;;;4935015;29;20075;-73
2023/01/11 06:26:58;;;;;;;10.00;5.85;;;;;;;;;;4935095;29;20046;-73
2023/01/11 06:29:25;;;;;;;13.07;7.20;;;;;;;;;;4931869;29;20034;-73
2023/01/11 06:31:51;;;;;;;10.82;7.88;;;;;;;;;;4924835;29;20041;-73
2023/01/11 06:34:17;;;;;;;14.00;8.85;;;;;;;;;;4923457;29;20082;-73
2023/01/11 06:36:43;;;;;;;12.25;8.50;;;;;;;;;;4923590;29;20023;-73
2023/01/11 06:39:09;;;;;;;14.63;9.48;;;;;;;;;;4924664;29;20539;-73
2023/01/11 06:41:35;;;;;;;14.52;8.85;;;;;;;;;;4923394;29;20048;-73
2023/01/11 06:44:01;;;;;;;13.93;10.05;;;;;;;;;;4922811;29;20028;-73
2023/01/11 06:46:27;;;;;;;15.18;9.77;;;;;;;;;;4924600;29;20141;-72
2023/01/11 06:48:54;;;;;;;13.65;8.60;;;;;;;;;;4922915;29;20046;-71
2023/01/11 06:51:20;;;;;;;14.32;8.48;;;;;;;;;;4923726;29;20031;-73
2023/01/11 06:53:46;;;;;;;15.00;8.68;;;;;;;;;;4924377;29;20028;-73
2023/01/11 06:56:13;;;;;;;14.68;9.20;;;;;;;;;;4924828;29;20023;-73
2023/01/11 06:58:39;;;;;;;13.25;7.78;;;;;;;;;;4923261;29;20036;-71
2023/01/11 07:01:05;;;;;;;15.77;8.95;;;;;;;;;;4922601;29;20046;-72
2023/01/11 07:03:31;;;;;;;15.98;10.13;;;;;;;;;;4924441;29;20496;-73
2023/01/11 07:05:58;;;;;;;14.23;8.98;;;;;;;;;;4923197;29;20016;-73
2023/01/11 07:08:25;;;;;;;14.50;9.38;;;;;;;;;;4922864;29;20032;-72
2023/01/11 07:10:51;;;;;;;13.77;9.13;;;;;;;;;;4924354;29;20102;-72
2023/01/11 07:13:17;;;;;;;15.30;9.60;;;;;;;;;;4922732;29;20020;-72
2023/01/11 07:15:44;;;;;;;15.35;8.63;;;;;;;;;;4922734;29;20032;-72
2023/01/11 07:18:11;;;;;;;15.90;9.80;;;;;;;;;;4924097;29;20031;-71
2023/01/11 07:20:37;;;;;;;14.15;9.80;;;;;;;;;;4922788;29;20388;-67
2023/01/11 07:23:03;;;;;;;15.27;9.60;;;;;;;;;;4933903;29;20038;-67
2023/01/11 07:25:29;;;;;;;16.70;10.40;;;;;;;;;;4933937;29;20036;-68
2023/01/11 07:27:59;;;;;;;20.98;10.93;;;;;;;;;;4933654;29;20428;-67
2023/01/11 07:30:27;;;;;;;16.75;10.60;;;;;;;;;;4933606;29;20500;-68
2023/01/11 07:32:53;;;;;;;15.00;10.07;;;;;;;;;;4933935;29;20531;-69
2023/01/11 07:35:19;;;;;;;17.13;11.10;;;;;;;;;;4933884;29;20110;-68
2023/01/11 07:37:45;;;;;;;17.80;9.65;;;;;;;;;;4933530;29;20027;-68
2023/01/11 07:40:12;;;;;;;19.85;11.63;;;;;;;;;;4933834;29;20023;-67
2023/01/11 07:45:22;;;;;;;23.63;13.65;;;;;;;;;;4933863;29;20071;-64
2023/01/11 07:47:50;;;;;;;25.58;14.00;;;;;;;;;;4927623;29;20054;-64
2023/01/11 07:50:16;;;;;;;23.55;13.50;;;;;;;;;;4933457;29;20032;-64
2023/01/11 07:52:49;;;;;;;22.58;13.68;;;;;;;;;;4933521;29;20087;-64
2023/01/11 07:55:16;;;;;;;24.80;14.35;;;;;;;;;;4934136;29;20102;-64
2023/01/11 07:57:42;;;;;;;26.73;14.60;;;;;;;;;;4937095;29;20043;-64
2023/01/11 08:00:09;;;;;;;24.95;14.30;;;;;;;;;;4936584;29;20024;-63
2023/01/11 08:02:35;;;;;;;22.85;13.50;;;;;;;;;;4936767;29;20064;-65
2023/01/11 08:05:01;;;;;;;18.58;12.13;;;;;;;;;;4935959;29;20099;-62
2023/01/11 08:07:27;;;;;;;20.58;12.00;;;;;;;;;;4918329;29;20047;-67
2023/01/11 08:09:53;;;;;;;20.83;11.70;;;;;;;;;;4917689;29;20031;-62
2023/01/11 08:15:04;;;;;;;34.92;19.17;;;;;;;;;;4917911;29;20121;-65
2023/01/11 08:17:30;;;;;;;18.33;10.90;;;;;;;;;;4917594;29;20032;-62
2023/01/11 08:19:56;;;;;;;16.02;9.88;;;;;;;;;;4917602;29;20028;-62
2023/01/11 08:22:22;;;;;;;21.58;12.30;;;;;;;;;;4918417;29;20028;-69
2023/01/11 08:24:48;;;;;;;23.25;14.15;;;;;;;;;;4917411;29;20028;-65
2023/01/11 08:27:14;;;;;;;23.67;12.68;;;;;;;;;;4917158;29;20540;-64
2023/01/11 08:29:43;;;;;;;20.92;12.10;;;;;;;;;;4917064;29;20040;-66
2023/01/11 08:32:09;;;;;;;20.70;12.25;;;;;;;;;;4932918;29;20028;-68
2023/01/11 08:34:35;;;;;;;17.10;10.90;;;;;;;;;;4935858;29;20031;-64
2023/01/11 08:37:01;;;;;;;19.75;12.18;;;;;;;;;;4936200;29;20055;-70
2023/01/11 08:39:30;;;;;;;19.50;12.15;;;;;;;;;;4935972;29;20058;-71
2023/01/11 08:41:57;;;;;;;19.58;11.30;;;;;;;;;;4933231;29;20031;-70
2023/01/11 08:44:23;;;;;;;20.48;11.63;;;;;;;;;;4919560;29;20035;-74
2023/01/11 08:46:49;;;;;;;18.83;11.48;;;;;;;;;;4917385;29;20492;-71
2023/01/11 08:49:15;;;;;;;19.85;11.25;;;;;;;;;;4917503;29;20036;-71
2023/01/11 08:51:41;;;;;;;19.10;11.23;;;;;;;;;;4920405;29;20020;-71
2023/01/11 08:54:11;;;;;;;19.05;11.40;;;;;;;;;;4920730;29;20029;-67
2023/01/11 08:56:37;;;;;;;18.58;11.00;;;;;;;;;;4923812;29;20027;-66
2023/01/11 08:59:04;;;;;;;16.35;9.65;;;;;;;;;;4925251;29;20553;-68
2023/01/11 09:01:30;;;;;;;19.17;10.90;;;;;;;;;;4923968;29;20135;-70
2023/01/11 09:03:57;;;;;;;17.02;10.10;;;;;;;;;;4927060;29;20052;-72
2023/01/11 09:06:23;;;;;;;20.92;12.07;;;;;;;;;;4924194;29;20024;-71
2023/01/11 09:08:49;;;;;;;22.73;13.77;;;;;;;;;;4923621;29;20111;-64
2023/01/11 09:14:00;;;;;;;21.27;11.75;;;;;;;;;;4924245;29;20436;-72
2023/01/11 09:16:26;;;;;;;17.83;10.68;;;;;;;;;;4924406;29;20547;-70
2023/01/11 09:18:52;;;;;;;22.33;12.10;;;;;;;;;;4925791;29;20049;-70
2023/01/11 09:21:18;;;;;;;21.95;12.77;;;;;;;;;;4924020;29;20487;-69
2023/01/11 09:23:44;;;;;;;21.25;12.07;;;;;;;;;;4924903;29;20387;-73
2023/01/11 09:26:11;;;;;;;20.98;12.85;;;;;;;;;;4925626;29;20124;-70
2023/01/11 09:28:37;;;;;;;23.95;12.48;;;;;;;;;;4920022;29;20406;-72
2023/01/11 09:31:03;;;;;;;23.45;13.75;;;;;;;;;;4923933;29;20055;-66
2023/01/11 09:33:30;;;;;;;28.02;14.27;;;;;;;;;;4925364;29;20102;-67
2023/01/11 09:35:57;;;;;;;21.90;14.25;;;;;;;;;;4923810;29;20034;-67
2023/01/11 09:38:28;;;;;;;21.60;12.75;;;;;;;;;;4924477;29;20035;-65
2023/01/11 09:41:05;;;;;;;21.20;12.70;;;;;;;;;;4925510;29;20027;-65
2023/01/11 09:43:33;;;;;;;21.15;12.55;;;;;;;;;;4918626;29;20028;-66
2023/01/11 09:46:03;;;;;;;22.08;13.52;;;;;;;;;;4916309;29;20032;-72
2023/01/11 09:48:42;;;;;;;23.13;13.25;;;;;;;;;;4916140;29;20044;-70
2023/01/11 09:51:11;;;;;;;24.15;14.63;;;;;;;;;;4922467;29;20480;-71
2023/01/11 09:53:37;;;;;;;23.88;13.77;;;;;;;;;;4922816;29;20109;-68
2023/01/11 09:56:07;;;;;;;21.15;14.38;;;;;;;;;;4928179;29;20220;-65
2023/01/11 09:58:39;;;;;;;21.38;13.20;;;;;;;;;;4917855;29;20369;-65
2023/01/11 10:01:17;;;;;;;20.85;12.75;;;;;;;;;;4924930;29;20063;-64
2023/01/11 10:03:53;;;;;;;24.10;13.90;;;;;;;;;;4924675;29;20059;-67
2023/01/11 10:06:25;;;;;;;25.63;14.35;;;;;;;;;;4922061;29;20087;-66
2023/01/11 10:08:52;;;;;;;24.30;14.75;;;;;;;;;;4915395;29;20122;-69
2023/01/11 10:11:19;;;;;;;29.65;17.98;;;;;;;;;;4915432;29;20465;-63
2023/01/11 10:14:04;;;;;;;22.88;14.32;;;;;;;;;;4915564;29;20054;-62
2023/01/11 10:16:37;;;;;;;23.92;14.80;;;;;;;;;;4915038;29;20111;-64
2023/01/11 10:19:12;;;;;;;20.80;12.68;;;;;;;;;;4915313;29;20028;-64
2023/01/11 10:21:41;;;;;;;23.98;14.57;;;;;;;;;;4915015;29;20028;-65
2023/01/11 10:24:13;;;;;;;23.90;14.00;;;;;;;;;;4915179;29;20020;-70
2023/01/11 10:26:40;;;;;;;21.52;13.35;;;;;;;;;;4915082;29;20496;-70
2023/01/11 10:43:07;;;;;;;26.92;15.23;;;;;;;;;;4838252;29;20041;-62
2023/01/11 10:45:45;;;;;;;24.92;14.60;;;;;;;;;;4838118;29;20073;-67
2023/01/11 10:48:19;;;;;;;22.10;12.40;;;;;;;;;;4838422;29;20105;-66
2023/01/11 10:51:03;;;;;;;28.02;15.13;;;;;;;;;;4838181;29;20022;-68
2023/01/11 10:53:50;;;;;;;26.08;15.70;;;;;;;;;;4837883;29;20058;-64
2023/01/11 10:56:19;;;;;;;23.10;14.68;;;;;;;;;;4825965;29;20034;-64
2023/01/11 10:58:45;;;;;;;25.55;13.13;;;;;;;;;;4838051;29;20110;-65
2023/01/11 11:01:17;;;;;;;22.45;13.60;;;;;;;;;;4844311;29;20075;-67
2023/01/11 11:03:44;;;;;;;24.23;14.80;;;;;;;;;;4853016;29;20046;-65
2023/01/11 11:06:28;;;;;;;29.90;16.02;;;;;;;;;;4854937;29;20038;-65
2023/01/11 11:08:54;;;;;;;28.08;17.40;;;;;;;;;;4853132;29;20590;-68
2023/01/11 11:11:26;;;;;;;32.28;15.90;;;;;;;;;;4855900;29;20073;-66
2023/01/11 11:13:52;;;;;;;28.33;16.13;;;;;;;;;;4855303;29;20038;-65
2023/01/11 11:16:21;;;;;;;25.15;16.20;;;;;;;;;;4852905;29;20040;-63
2023/01/11 11:18:48;;;;;;;32.25;18.35;;;;;;;;;;4865544;29;20500;-64
2023/01/11 11:21:27;;;;;;;32.42;17.80;;;;;;;;;;4933480;29;20384;-64
2023/01/11 11:23:57;;;;;;;30.88;15.70;;;;;;;;;;4933847;29;20030;-63
2023/01/11 11:26:27;;;;;;;27.25;16.55;;;;;;;;;;4931296;29;20036;-70
2023/01/11 11:29:04;;;;;;;27.52;16.40;;;;;;;;;;4933065;29;20083;-61
2023/01/11 11:31:31;;;;;;;30.75;17.42;;;;;;;;;;4933098;29;20028;-60
2023/01/11 11:34:03;;;;;;;27.48;16.35;;;;;;;;;;4932653;29;20020;-71
2023/01/11 11:36:39;;;;;;;27.92;16.13;;;;;;;;;;4930922;29;20465;-66
2023/01/11 11:39:10;;;;;;;29.52;17.13;;;;;;;;;;4924165;29;20357;-61
2023/01/11 11:41:50;;;;;;;28.20;16.40;;;;;;;;;;4932922;29;20032;-62
2023/01/11 11:44:25;;;;;;;25.13;14.27;;;;;;;;;;4933620;29;20594;-63
2023/01/11 11:46:57;;;;;;;26.15;14.85;;;;;;;;;;4933699;29;20379;-62
2023/01/11 11:49:23;;;;;;;28.38;16.88;;;;;;;;;;4933728;29;20534;-62
2023/01/11 11:51:50;;;;;;;25.10;14.48;;;;;;;;;;4933419;29;20060;-66
2023/01/11 11:54:42;;;;;;;24.17;12.70;;;;;;;;;;4927407;29;20046;-61
2023/01/11 11:57:23;;;;;;;24.65;14.23;;;;;;;;;;4916896;29;20063;-62
2023/01/11 11:59:54;;;;;;;25.10;14.93;;;;;;;;;;4923915;29;20039;-62
2023/01/11 12:02:23;;;;;;;24.73;15.30;;;;;;;;;;4931630;29;20098;-60
2023/01/11 12:04:50;;;;;;;25.75;16.80;;;;;;;;;;4927762;29;20102;-61
2023/01/11 12:07:18;;;;;;;29.02;16.35;;;;;;;;;;4905524;29;20823;-60
2023/01/11 12:09:49;;;;;;;28.20;16.92;;;;;;;;;;4932176;29;20044;-60
2023/01/11 12:12:17;;;;;;;26.95;18.00;;;;;;;;;;4932982;29;20027;-60
2023/01/11 12:14:43;;;;;;;28.17;17.55;;;;;;;;;;4933071;29;20028;-61
2023/01/11 12:17:35;;;;;;;33.88;19.15;;;;;;;;;;4932572;29;20484;-60
2023/01/11 12:20:01;;;;;;;27.58;17.92;;;;;;;;;;4929424;29;20042;-64
2023/01/11 12:22:28;;;;;;;31.13;18.67;;;;;;;;;;4922899;29;20032;-62
2023/01/11 12:25:03;;;;;;;31.98;17.63;;;;;;;;;;4894114;29;20460;-60
2023/01/11 12:27:42;;;;;;;29.60;17.85;;;;;;;;;;4913934;29;20040;-67
2023/01/11 12:30:26;;;;;;;31.17;19.00;;;;;;;;;;4913356;29;20040;-60
2023/01/11 12:33:11;;;;;;;28.50;17.88;;;;;;;;;;4913648;29;20028;-60
2023/01/11 12:35:52;;;;;;;27.80;16.88;;;;;;;;;;4913472;29;20024;-61
2023/01/11 12:38:18;;;;;;;28.50;17.48;;;;;;;;;;4913992;29;20028;-61
2023/01/11 12:41:00;;;;;;;28.05;18.95;;;;;;;;;;4913140;29;20039;-61
2023/01/11 12:43:26;;;;;;;28.98;18.15;;;;;;;;;;4916500;29;20075;-61
2023/01/11 12:45:58;;;;;;;30.05;18.20;;;;;;;;;;4917113;29;20032;-61
2023/01/11 12:48:24;;;;;;;32.33;18.13;;;;;;;;;;4917080;29;20051;-62
2023/01/11 12:51:07;;;;;;;28.13;17.00;;;;;;;;;;4917408;29;20028;-61
2023/01/11 12:53:48;;;;;;;30.58;17.15;;;;;;;;;;4917431;29;20044;-61
2023/01/11 12:56:14;;;;;;;25.67;16.55;;;;;;;;;;4916496;29;20100;-62
2023/01/11 12:58:48;;;;;;;26.20;16.55;;;;;;;;;;4916688;29;20150;-61
2023/01/11 13:01:20;;;;;;;27.85;16.50;;;;;;;;;;4933837;29;20067;-62
2023/01/11 13:03:57;;;;;;;22.33;12.77;;;;;;;;;;4935394;29;20024;-61
2023/01/11 13:06:23;;;;;;;27.48;16.98;;;;;;;;;;4935672;29;20032;-62
2023/01/11 13:08:51;;;;;;;29.15;17.13;;;;;;;;;;4935527;29;20038;-63
2023/01/11 13:11:36;;;;;;;28.95;16.65;;;;;;;;;;4935367;29;20016;-62
2023/01/11 13:14:18;;;;;;;27.80;15.98;;;;;;;;;;4935771;29;20066;-62
2023/01/11 13:17:00;;;;;;;32.05;16.40;;;;;;;;;;4935546;29;20023;-61
2023/01/11 13:19:26;;;;;;;31.95;16.08;;;;;;;;;;4935456;29;20682;-62
2023/01/11 13:21:54;;;;;;;24.98;15.88;;;;;;;;;;4935503;29;20106;-62
2023/01/11 13:24:25;;;;;;;25.40;16.05;;;;;;;;;;4935564;29;20032;-62
2023/01/11 13:26:52;;;;;;;25.88;16.20;;;;;;;;;;4935387;29;20047;-62
2023/01/11 13:29:22;;;;;;;27.08;16.40;;;;;;;;;;4935223;29;20562;-62
2023/01/11 13:31:49;;;;;;;28.00;15.75;;;;;;;;;;4935412;29;20148;-62
2023/01/11 13:34:15;;;;;;;25.15;15.48;;;;;;;;;;4935142;29;20483;-62
2023/01/11 13:36:50;;;;;;;27.13;15.27;;;;;;;;;;4935199;29;20110;-62
2023/01/11 13:39:45;;;;;;;22.00;14.82;;;;;;;;;;4934936;29;20119;-62
2023/01/11 13:42:14;;;;;;;24.30;14.57;;;;;;;;;;4838787;29;20104;-62
2023/01/11 13:44:44;;;;;;;24.52;15.07;;;;;;;;;;4839333;29;20030;-62
2023/01/11 13:47:13;;;;;;;25.10;15.68;;;;;;;;;;4838847;29;20470;-62
2023/01/11 13:49:51;;;;;;;28.60;15.38;;;;;;;;;;4839447;29;20038;-61
2023/01/11 13:52:24;;;;;;;24.70;14.80;;;;;;;;;;4839338;29;20157;-61
2023/01/11 13:54:58;;;;;;;25.70;15.38;;;;;;;;;;4841578;29;20030;-63
2023/01/11 13:57:34;;;;;;;24.60;15.90;;;;;;;;;;4833207;29;20037;-65
2023/01/11 14:00:04;;;;;;;23.95;14.05;;;;;;;;;;4838732;29;20593;-62
2023/01/11 14:02:35;;;;;;;23.17;14.38;;;;;;;;;;4838568;29;20064;-62
2023/01/11 14:05:08;;;;;;;24.80;14.27;;;;;;;;;;4835480;29;20041;-62
2023/01/11 14:07:34;;;;;;;23.27;13.30;;;;;;;;;;4838511;29;20045;-62
2023/01/11 14:10:09;;;;;;;24.27;15.02;;;;;;;;;;4838307;29;20030;-63
2023/01/11 14:12:54;;;;;;;22.70;14.18;;;;;;;;;;4837587;29;20041;-64
2023/01/11 14:15:30;;;;;;;22.40;14.65;;;;;;;;;;4837965;29;20065;-63
2023/01/11 14:17:59;;;;;;;26.80;14.32;;;;;;;;;;4852658;29;20048;-61
2023/01/11 14:20:43;;;;;;;25.00;13.50;;;;;;;;;;4915118;29;20068;-62
2023/01/11 14:23:12;;;;;;;21.42;13.07;;;;;;;;;;4915149;29;20024;-61
2023/01/11 14:25:41;;;;;;;22.25;12.75;;;;;;;;;;4915280;29;20556;-64
2023/01/11 14:28:26;;;;;;;21.20;13.07;;;;;;;;;;4914507;29;20059;-62
2023/01/11 14:30:58;;;;;;;21.13;12.80;;;;;;;;;;4915132;29;20135;-63
2023/01/11 14:33:43;;;;;;;28.05;15.52;;;;;;;;;;4915405;29;20029;-64
2023/01/11 14:36:19;;;;;;;28.83;16.98;;;;;;;;;;4915544;29;20488;-65
2023/01/11 14:38:48;;;;;;;27.33;15.40;;;;;;;;;;4915218;29;20024;-62
2023/01/11 14:41:29;;;;;;;26.35;14.02;;;;;;;;;;4915370;29;20024;-63
2023/01/11 14:44:02;;;;;;;19.70;12.48;;;;;;;;;;4915070;29;20047;-65
2023/01/11 14:46:28;;;;;;;20.63;12.20;;;;;;;;;;4913255;29;20063;-64
2023/01/11 14:49:04;;;;;;;18.02;11.75;;;;;;;;;;4914422;29;20079;-62
2023/01/11 14:51:48;;;;;;;19.65;10.85;;;;;;;;;;4914793;29;20024;-63
2023/01/11 14:54:26;;;;;;;21.83;11.10;;;;;;;;;;4914573;29;20484;-62
2023/01/11 14:56:53;;;;;;;19.60;10.50;;;;;;;;;;4914403;29;20036;-62
2023/01/11 14:59:28;;;;;;;19.73;12.02;;;;;;;;;;4914008;29;20042;-67
2023/01/11 15:02:03;;;;;;;18.92;11.20;;;;;;;;;;4911552;29;20131;-64
2023/01/11 15:04:29;;;;;;;18.40;10.40;;;;;;;;;;4913933;29;20088;-65
2023/01/11 15:06:56;;;;;;;21.55;10.07;;;;;;;;;;4900235;29;20033;-65
2023/01/11 15:09:41;;;;;;;16.85;10.18;;;;;;;;;;4896278;29;20041;-63
2023/01/11 15:12:14;;;;;;;20.00;11.77;;;;;;;;;;4898302;29;20072;-62
2023/01/11 15:14:45;;;;;;;18.55;12.10;;;;;;;;;;4914810;29;20028;-63
2023/01/11 15:20:05;;;;;;;19.65;11.38;;;;;;;;;;4914788;29;20091;-61
2023/01/11 15:22:32;;;;;;;18.98;10.43;;;;;;;;;;4914036;29;20136;-62
2023/01/11 15:25:06;;;;;;;19.13;10.57;;;;;;;;;;4914691;29;20476;-61